createdAt,value
2018-05-24T00:02:02.080Z,62.60
2018-05-24T00:04:29.708Z,62.80
2018-05-24T00:06:57.342Z,62.80
2018-05-24T00:09:24.947Z,63.30
2018-05-24T00:11:52.551Z,63.20
2018-05-24T00:14:20.992Z,63.20
2018-05-24T00:16:48.589Z,63.20
2018-05-24T00:19:16.205Z,64.20
2018-05-24T00:21:43.856Z,63.50
2018-05-24T00:24:11.462Z,63.40
2018-05-24T00:26:39.069Z,63.30
2018-05-24T00:29:07.487Z,63.70
2018-05-24T00:31:35.084Z,63.70
2018-05-24T00:34:02.680Z,63.90
2018-05-24T00:36:31.149Z,64.00
2018-05-24T00:38:58.759Z,64.00
2018-05-24T00:41:26.370Z,64.00
2018-05-24T00:43:54.257Z,64.30
2018-05-24T00:46:22.681Z,64.30
2018-05-24T00:48:50.290Z,64.30
2018-05-24T00:51:18.045Z,64.50
2018-05-24T00:53:45.707Z,64.60
2018-05-24T00:56:13.316Z,64.60
2018-05-24T00:58:41.720Z,65.00
2018-05-24T01:01:09.344Z,65.00
2018-05-24T01:03:36.997Z,64.80
2018-05-24T01:06:04.603Z,65.10
2018-05-24T01:08:32.971Z,65.30
2018-05-24T01:11:01.373Z,65.20
2018-05-24T01:13:28.965Z,65.20
2018-05-24T01:15:56.699Z,65.60
2018-05-24T01:18:24.245Z,65.60
2018-05-24T01:20:51.841Z,65.70
2018-05-24T01:23:19.500Z,65.50
2018-05-24T01:25:47.121Z,65.40
2018-05-24T01:28:14.730Z,65.60
2018-05-24T01:30:42.362Z,65.50
2018-05-24T01:33:09.973Z,65.60
2018-05-24T01:35:37.581Z,65.80
2018-05-24T01:38:05.296Z,65.70
2018-05-24T01:40:32.898Z,65.60
2018-05-24T01:43:00.500Z,65.90
2018-05-24T01:45:28.138Z,65.80
2018-05-24T01:47:55.914Z,64.90
2018-05-24T01:50:23.539Z,65.20
2018-05-24T01:52:51.202Z,64.90
2018-05-24T01:55:18.802Z,66.10
2018-05-24T01:57:46.467Z,65.80
2018-05-24T02:00:14.104Z,66.00
2018-05-24T02:02:41.749Z,66.20
2018-05-24T02:05:10.118Z,65.90
2018-05-24T02:07:38.525Z,65.80
2018-05-24T02:10:06.129Z,65.70
2018-05-24T02:12:33.779Z,65.90
2018-05-24T02:15:01.381Z,65.60
2018-05-24T02:17:29.017Z,65.70
2018-05-24T02:19:56.631Z,65.80
2018-05-24T02:22:25.001Z,66.00
2018-05-24T02:24:52.638Z,66.20
2018-05-24T02:27:20.237Z,65.80
2018-05-24T02:29:47.865Z,65.50
2018-05-24T02:32:15.505Z,65.40
2018-05-24T02:34:43.114Z,65.30
2018-05-24T02:37:10.746Z,65.10
2018-05-24T02:39:38.385Z,64.80
2018-05-24T02:42:06.752Z,64.60
2018-05-24T02:44:35.126Z,64.90
2018-05-24T02:47:02.857Z,64.90
2018-05-24T02:49:30.458Z,64.60
2018-05-24T02:51:58.066Z,64.20
2018-05-24T02:54:25.699Z,64.30
2018-05-24T02:56:54.093Z,64.40
2018-05-24T02:59:22.468Z,63.10
2018-05-24T03:01:50.870Z,62.90
2018-05-24T03:04:18.474Z,62.90
2018-05-24T03:06:46.090Z,63.20
2018-05-24T03:09:14.533Z,63.10
2018-05-24T03:11:42.129Z,63.10
2018-05-24T03:14:10.505Z,63.50
2018-05-24T03:16:38.160Z,63.50
2018-05-24T03:19:05.756Z,64.40
2018-05-24T03:21:34.121Z,66.20
2018-05-24T03:24:01.753Z,66.20
2018-05-24T03:26:29.377Z,66.70
2018-05-24T03:28:57.003Z,68.60
2018-05-24T03:31:24.645Z,68.20
2018-05-24T03:33:52.243Z,68.60
2018-05-24T03:36:19.857Z,68.10
2018-05-24T03:38:47.508Z,68.10
2018-05-24T03:41:15.110Z,67.90
2018-05-24T03:43:42.721Z,67.70
2018-05-24T03:46:11.116Z,67.50
2018-05-24T03:48:38.744Z,67.50
2018-05-24T03:51:06.362Z,67.40
2018-05-24T03:53:34.017Z,67.30
2018-05-24T03:56:01.615Z,67.40
2018-05-24T03:58:29.245Z,67.50
2018-05-24T04:01:08.692Z,68.20
2018-05-24T04:03:47.976Z,68.50
2018-05-24T04:06:15.590Z,68.70
2018-05-24T04:08:43.532Z,69.10
2018-05-24T04:11:11.902Z,69.80
2018-05-24T04:13:39.532Z,69.80
2018-05-24T04:16:07.156Z,69.90
2018-05-24T04:18:34.759Z,70.00
2018-05-24T04:21:02.374Z,71.50
2018-05-24T04:23:30.769Z,72.90
2018-05-24T04:25:59.141Z,74.60
2018-05-24T04:28:27.512Z,75.80
2018-05-24T04:30:55.924Z,77.50
2018-05-24T04:33:24.308Z,77.10
2018-05-24T04:35:51.930Z,77.10
2018-05-24T04:38:19.571Z,78.10
2018-05-24T04:40:47.177Z,78.20
2018-05-24T04:43:14.816Z,79.20
2018-05-24T04:45:42.470Z,79.10
2018-05-24T04:48:10.085Z,78.60
2018-05-24T04:50:38.453Z,77.50
2018-05-24T04:53:06.093Z,77.50
2018-05-24T04:55:33.709Z,78.70
2018-05-24T04:58:02.079Z,81.20
2018-05-24T05:00:30.478Z,83.00
2018-05-24T05:02:58.834Z,81.80
2018-05-24T05:05:26.441Z,81.80
2018-05-24T05:07:54.104Z,81.70
2018-05-24T05:10:21.713Z,81.10
2018-05-24T05:12:49.322Z,81.50
2018-05-24T05:15:17.741Z,81.30
2018-05-24T05:17:45.352Z,81.30
2018-05-24T05:20:12.977Z,80.40
2018-05-24T05:22:40.620Z,80.00
2018-05-24T05:25:08.237Z,79.30
2018-05-24T05:27:35.845Z,80.10
2018-05-24T05:30:03.478Z,81.00
2018-05-24T05:32:31.854Z,81.30
2018-05-24T05:34:59.461Z,81.20
2018-05-24T05:37:27.131Z,79.80
2018-05-24T05:39:54.748Z,79.10
2018-05-24T05:42:22.353Z,80.40
2018-05-24T05:44:50.045Z,80.10
2018-05-24T05:47:17.645Z,79.80
2018-05-24T05:49:45.251Z,79.30
2018-05-24T05:52:12.881Z,78.70
2018-05-24T05:54:40.484Z,79.80
2018-05-24T05:57:08.418Z,78.90
2018-05-24T05:59:36.079Z,79.10
2018-05-24T06:02:03.699Z,79.40
2018-05-24T06:04:31.304Z,79.00
2018-05-24T06:06:58.937Z,78.10
2018-05-24T06:09:26.528Z,78.10
2018-05-24T06:11:54.130Z,77.90
2018-05-24T06:14:22.527Z,78.50
2018-05-24T06:16:50.138Z,78.60
2018-05-24T06:19:17.737Z,79.20
2018-05-24T06:21:46.138Z,79.00
2018-05-24T06:24:13.770Z,79.00
2018-05-24T06:26:41.370Z,79.70
2018-05-24T06:29:08.998Z,79.60
2018-05-24T06:31:36.608Z,79.50
2018-05-24T06:34:04.205Z,78.80
2018-05-24T06:36:31.840Z,79.30
2018-05-24T06:38:59.449Z,79.70
2018-05-24T06:41:27.069Z,80.70
2018-05-24T06:43:54.709Z,81.30
2018-05-24T06:46:23.127Z,81.70
2018-05-24T06:48:50.723Z,81.70
2018-05-24T06:51:18.364Z,82.70
2018-05-24T06:53:45.975Z,82.70
2018-05-24T06:56:14.370Z,84.70
2018-05-24T06:58:42.773Z,84.60
2018-05-24T07:01:10.382Z,84.60
2018-05-24T07:03:37.990Z,84.30
2018-05-24T07:06:06.390Z,84.10
2018-05-24T07:08:33.997Z,84.10
2018-05-24T07:11:01.653Z,83.30
2018-05-24T07:13:29.269Z,83.00
2018-05-24T07:15:57.626Z,81.90
2018-05-24T07:18:25.233Z,81.90
2018-05-24T07:20:52.872Z,82.20
2018-05-24T07:23:20.488Z,84.10
2018-05-24T07:25:48.101Z,82.80
2018-05-24T07:28:16.549Z,80.80
2018-05-24T07:30:44.153Z,80.80
2018-05-24T07:33:11.773Z,81.60
2018-05-24T07:35:39.513Z,81.30
2018-05-24T07:38:07.119Z,81.00
2018-05-24T07:40:34.723Z,81.80
2018-05-24T07:43:03.132Z,81.90
2018-05-24T07:45:30.733Z,81.80
2018-05-24T07:47:58.377Z,82.00
2018-05-24T07:50:26.010Z,82.40
2018-05-24T07:52:54.383Z,82.70
2018-05-24T07:55:22.762Z,82.00
2018-05-24T07:57:51.177Z,82.30
2018-05-24T08:00:18.782Z,82.20
2018-05-24T08:02:46.375Z,81.80
2018-05-24T08:05:14.028Z,82.10
2018-05-24T08:07:41.630Z,81.50
2018-05-24T08:10:09.240Z,81.70
2018-05-24T08:12:36.885Z,80.90
2018-05-24T08:15:04.684Z,81.90
2018-05-24T08:17:32.325Z,81.20
2018-05-24T08:19:59.958Z,80.50
2018-05-24T08:22:28.728Z,77.10
2018-05-24T08:24:56.324Z,77.10
2018-05-24T08:27:23.938Z,79.60
2018-05-24T08:29:51.579Z,78.70
2018-05-24T08:32:19.193Z,74.80
2018-05-24T08:34:47.555Z,76.30
2018-05-24T08:37:15.196Z,77.00
2018-05-24T08:39:42.798Z,75.60
2018-05-24T08:42:10.424Z,75.50
2018-05-24T08:44:38.062Z,75.00
2018-05-24T08:47:05.713Z,75.50
2018-05-24T08:49:33.336Z,75.40
2018-05-24T08:52:00.996Z,74.20
2018-05-24T08:54:28.605Z,77.00
2018-05-24T08:56:56.965Z,74.60
2018-05-24T08:59:25.447Z,72.30
2018-05-24T09:01:53.057Z,72.30
2018-05-24T09:04:20.678Z,73.20
2018-05-24T09:06:48.520Z,70.00
2018-05-24T09:09:16.156Z,69.50
2018-05-24T09:11:44.527Z,71.10
2018-05-24T09:14:12.926Z,68.90
2018-05-24T09:16:40.532Z,68.90
2018-05-24T09:19:08.159Z,67.00
2018-05-24T09:21:35.808Z,66.40
2018-05-24T09:24:04.237Z,63.40
2018-05-24T09:26:32.636Z,67.90
2018-05-24T09:29:00.284Z,67.80
2018-05-24T09:31:27.903Z,64.70
2018-05-24T09:33:56.318Z,63.10
2018-05-24T09:36:24.041Z,63.10
2018-05-24T09:38:51.625Z,65.00
2018-05-24T09:41:19.232Z,62.80
2018-05-24T09:43:46.867Z,61.40
2018-05-24T09:46:14.492Z,61.30
2018-05-24T09:48:42.098Z,61.30
2018-05-24T09:51:09.767Z,60.90
2018-05-24T09:53:37.379Z,59.40
2018-05-24T09:56:05.767Z,59.50
2018-05-24T09:58:33.433Z,59.60
2018-05-24T10:01:01.087Z,58.10
2018-05-24T10:03:28.698Z,58.90
2018-05-24T10:05:56.353Z,59.80
2018-05-24T10:08:23.957Z,59.70
2018-05-24T10:10:51.560Z,58.80
2018-05-24T10:13:19.216Z,58.00
2018-05-24T10:15:46.829Z,55.80
2018-05-24T10:18:15.220Z,56.20
2018-05-24T10:20:42.865Z,56.20
2018-05-24T10:23:10.476Z,56.30
2018-05-24T10:25:38.099Z,59.10
2018-05-24T10:28:05.754Z,57.10
2018-05-24T10:33:23.788Z,55.70
2018-05-24T10:35:51.378Z,55.80
2018-05-24T10:38:18.960Z,54.70
2018-05-24T10:40:47.350Z,54.10
2018-05-24T10:43:14.941Z,54.00
2018-05-24T10:45:42.514Z,52.00
2018-05-24T10:48:10.127Z,52.30
2018-05-24T10:50:38.479Z,53.50
2018-05-24T10:53:06.075Z,53.50
2018-05-24T10:55:34.475Z,53.90
2018-05-24T10:58:02.062Z,53.90
2018-05-24T11:00:29.658Z,53.00
2018-05-24T11:02:57.297Z,53.00
2018-05-24T11:05:24.883Z,53.60
2018-05-24T11:07:52.468Z,52.40
2018-05-24T11:10:20.086Z,53.20
2018-05-24T11:12:47.684Z,51.60
2018-05-24T11:15:15.276Z,53.00
2018-05-24T11:17:43.687Z,49.80
2018-05-24T11:20:11.275Z,49.70
2018-05-24T11:22:38.898Z,51.00
2018-05-24T11:25:07.365Z,52.90
2018-05-24T11:27:34.966Z,52.80
2018-05-24T11:30:02.552Z,53.80
2018-05-24T11:32:30.177Z,52.60
2018-05-24T11:34:58.537Z,52.20
2018-05-24T11:37:26.154Z,52.20
2018-05-24T11:39:54.644Z,51.90
2018-05-24T11:42:22.234Z,54.30
2018-05-24T11:44:49.844Z,51.60
2018-05-24T11:47:18.247Z,52.50
2018-05-24T11:49:45.839Z,52.40
2018-05-24T11:52:13.423Z,51.70
2018-05-24T11:54:41.031Z,52.40
2018-05-24T11:57:08.648Z,52.90
2018-05-24T11:59:36.247Z,50.90
2018-05-24T12:02:04.652Z,52.60
2018-05-24T12:04:32.240Z,52.60
2018-05-24T12:06:59.845Z,53.50
2018-05-24T12:09:28.255Z,52.50
2018-05-24T12:11:55.849Z,52.50
2018-05-24T12:14:23.442Z,52.00
2018-05-24T12:16:51.053Z,53.00
2018-05-24T12:19:18.647Z,52.20
2018-05-24T12:21:46.231Z,54.30
2018-05-24T12:24:13.872Z,54.90
2018-05-24T12:26:41.465Z,56.00
2018-05-24T12:29:09.111Z,57.00
2018-05-24T12:31:36.727Z,58.40
2018-05-24T12:34:05.080Z,59.00
2018-05-24T12:36:33.482Z,60.50
2018-05-24T12:39:01.102Z,59.80
2018-05-24T12:41:28.690Z,59.10
2018-05-24T12:43:56.309Z,60.20
2018-05-24T12:46:24.797Z,60.90
2018-05-24T12:48:52.395Z,60.90
2018-05-24T12:51:19.988Z,61.00
2018-05-24T12:53:47.622Z,61.00
2018-05-24T12:56:15.201Z,61.70
2018-05-24T12:58:42.793Z,61.60
2018-05-24T13:01:11.206Z,62.70
2018-05-24T13:03:38.794Z,64.10
2018-05-24T13:06:06.402Z,65.10
2018-05-24T13:08:34.046Z,65.50
2018-05-24T13:11:01.633Z,66.40
2018-05-24T13:13:29.238Z,66.50
2018-05-24T13:15:56.859Z,66.50
2018-05-24T13:18:24.470Z,67.90
2018-05-24T13:20:52.050Z,67.20
2018-05-24T13:23:19.668Z,66.80
2018-05-24T13:25:48.025Z,66.90
2018-05-24T13:28:15.620Z,66.90
2018-05-24T13:30:44.015Z,67.90
2018-05-24T13:33:11.608Z,67.90
2018-05-24T13:35:39.211Z,69.50
2018-05-24T13:38:07.304Z,67.00
2018-05-24T13:40:36.237Z,67.80
2018-05-24T13:43:03.828Z,67.80
2018-05-24T13:45:31.462Z,68.00
2018-05-24T13:47:59.043Z,67.80
2018-05-24T13:50:26.638Z,67.10
2018-05-24T13:52:54.246Z,68.50
2018-05-24T13:55:21.835Z,68.60
2018-05-24T13:57:49.432Z,68.30
2018-05-24T14:00:17.067Z,68.60
2018-05-24T14:02:44.663Z,69.10
2018-05-24T14:05:12.261Z,64.50
2018-05-24T14:07:40.639Z,64.70
2018-05-24T14:10:09.001Z,65.50
2018-05-24T14:12:36.608Z,65.50
2018-05-24T14:15:04.257Z,66.10
2018-05-24T14:17:31.860Z,64.70
2018-05-24T14:19:59.477Z,66.00
2018-05-24T14:22:28.594Z,65.30
2018-05-24T14:24:56.940Z,64.70
2018-05-24T14:27:24.546Z,64.70
2018-05-24T14:29:52.183Z,64.40
2018-05-24T14:32:19.812Z,64.70
2018-05-24T14:34:47.402Z,65.00
2018-05-24T14:37:15.018Z,64.20
2018-05-24T14:39:42.609Z,65.20
2018-05-24T14:42:10.202Z,65.50
2018-05-24T14:44:37.823Z,66.20
2018-05-24T14:47:05.428Z,65.90
2018-05-24T14:49:33.022Z,66.30
2018-05-24T14:52:01.397Z,65.60
2018-05-24T14:54:42.275Z,65.60
2018-05-24T14:57:09.940Z,66.20
2018-05-24T14:59:38.299Z,66.80
2018-05-24T15:02:05.878Z,66.80
2018-05-24T15:04:33.507Z,68.40
2018-05-24T15:07:01.108Z,66.90
2018-05-24T15:09:28.742Z,66.90
2018-05-24T15:11:56.331Z,67.10
2018-05-24T15:14:23.924Z,67.20
2018-05-24T15:16:52.398Z,67.60
2018-05-24T15:19:20.752Z,68.20
2018-05-24T15:21:48.344Z,68.20
2018-05-24T15:24:16.751Z,68.40
2018-05-24T15:26:44.348Z,68.40
2018-05-24T15:29:11.947Z,68.90
2018-05-24T15:31:39.572Z,68.60
2018-05-24T15:34:07.172Z,68.70
2018-05-24T15:36:34.766Z,67.90
2018-05-24T15:39:02.406Z,68.00
2018-05-24T15:41:29.998Z,68.00
2018-05-24T15:43:57.591Z,67.20
2018-05-24T15:46:25.214Z,68.50
2018-05-24T15:48:53.594Z,67.90
2018-05-24T15:51:21.955Z,67.70
2018-05-24T15:53:49.599Z,67.70
2018-05-24T15:56:17.192Z,67.80
2018-05-24T15:58:44.786Z,68.50
2018-05-24T16:01:13.175Z,68.90
2018-05-24T16:03:40.768Z,68.90
2018-05-24T16:06:08.377Z,68.20
2018-05-24T16:08:36.004Z,67.60
2018-05-24T16:11:04.409Z,68.70
2018-05-24T16:13:32.011Z,69.00
2018-05-24T16:16:00.423Z,69.50
2018-05-24T16:18:28.022Z,70.20
2018-05-24T16:20:55.614Z,69.40
2018-05-24T16:23:23.286Z,70.30
2018-05-24T16:25:51.655Z,70.90
2018-05-24T16:28:19.258Z,70.90
2018-05-24T16:30:46.888Z,71.10
2018-05-24T16:33:14.471Z,70.70
2018-05-24T16:35:42.834Z,70.70
2018-05-24T16:38:10.449Z,70.70
2018-05-24T16:40:38.035Z,70.50
2018-05-24T16:43:05.631Z,70.30
2018-05-24T16:45:34.034Z,71.20
2018-05-24T16:48:02.391Z,72.40
2018-05-24T16:50:29.992Z,72.40
2018-05-24T16:52:57.604Z,72.60
2018-05-24T16:55:25.216Z,73.50
2018-05-24T16:57:52.815Z,73.40
2018-05-24T17:00:20.430Z,72.70
2018-05-24T17:02:48.791Z,73.00
2018-05-24T17:05:16.395Z,72.90
2018-05-24T17:07:44.033Z,72.70
2018-05-24T17:10:11.635Z,72.60
2018-05-24T17:12:39.243Z,72.90
2018-05-24T17:15:06.903Z,72.60
2018-05-24T17:17:34.510Z,72.60
2018-05-24T17:20:02.879Z,73.10
2018-05-24T17:22:30.497Z,73.10
2018-05-24T17:24:58.092Z,73.10
2018-05-24T17:27:25.706Z,73.40
2018-05-24T17:29:53.332Z,73.60
2018-05-24T17:32:21.032Z,73.70
2018-05-24T17:34:49.398Z,73.00
2018-05-24T17:37:17.787Z,73.00
2018-05-24T17:39:46.151Z,73.30
2018-05-24T17:42:13.738Z,73.20
2018-05-24T17:44:42.154Z,74.20
2018-05-24T17:47:09.761Z,74.20
2018-05-24T17:49:37.370Z,74.10
2018-05-24T17:52:05.001Z,74.60
2018-05-24T17:54:32.603Z,74.20
2018-05-24T17:57:00.956Z,73.40
2018-05-24T17:59:29.398Z,72.60
2018-05-24T18:01:56.987Z,72.60
2018-05-24T18:04:25.418Z,73.70
2018-05-24T18:06:53.059Z,73.70
2018-05-24T18:09:21.456Z,73.10
2018-05-24T18:11:49.042Z,73.10
2018-05-24T18:14:16.670Z,73.30
2018-05-24T18:16:45.030Z,73.20
2018-05-24T18:19:12.697Z,73.20
2018-05-24T18:21:45.517Z,73.70
2018-05-24T18:24:13.114Z,73.90
2018-05-24T18:26:41.723Z,73.90
2018-05-24T18:29:09.352Z,74.00
2018-05-24T18:31:36.950Z,74.30
2018-05-24T18:34:04.550Z,73.80
2018-05-24T18:36:33.266Z,74.30
2018-05-24T18:39:02.787Z,74.20
2018-05-24T18:41:32.320Z,74.10
2018-05-24T18:44:01.600Z,74.10
2018-05-24T18:46:29.380Z,74.30
2018-05-24T18:49:00.048Z,74.30
2018-05-24T18:51:27.793Z,74.30
2018-05-24T18:53:55.478Z,75.20
2018-05-24T18:56:23.195Z,75.30
2018-05-24T18:58:51.007Z,75.20
2018-05-24T19:01:18.770Z,74.90
2018-05-24T19:03:46.425Z,75.00
2018-05-24T19:06:14.364Z,75.60
2018-05-24T19:08:46.766Z,75.60
2018-05-24T19:11:15.467Z,75.80
2018-05-24T19:13:46.973Z,75.90
2018-05-24T19:16:16.400Z,75.70
2018-05-24T19:18:44.352Z,75.70
2018-05-24T19:21:14.371Z,76.40
2018-05-24T19:23:43.948Z,76.40
2018-05-24T19:26:12.459Z,76.60
2018-05-24T19:28:41.062Z,76.80
2018-05-24T19:31:08.961Z,76.80
2018-05-24T19:36:11.283Z,77.40
2018-05-24T19:38:39.658Z,77.40
2018-05-24T19:41:07.530Z,77.70
2018-05-24T19:46:14.627Z,77.60
2018-05-24T19:48:46.985Z,77.80
2018-05-24T19:51:19.042Z,78.10
2018-05-24T19:53:46.855Z,78.20
2018-05-24T19:56:14.701Z,78.50
2018-05-24T19:58:48.365Z,78.70
2018-05-24T20:01:16.979Z,78.80
2018-05-24T20:03:46.871Z,78.90
2018-05-24T20:06:15.425Z,79.10
2018-05-24T20:08:44.213Z,79.10
2018-05-24T20:11:12.925Z,79.30
2018-05-24T20:13:42.134Z,79.80
2018-05-24T20:16:13.276Z,79.70
2018-05-24T20:18:42.604Z,79.70
2018-05-24T20:21:10.637Z,80.50
2018-05-24T20:23:41.013Z,79.70
2018-05-24T20:26:09.544Z,79.80
2018-05-24T20:28:37.263Z,79.40
2018-05-24T20:31:05.770Z,79.70
2018-05-24T20:33:33.486Z,79.50
2018-05-24T20:36:01.163Z,79.50
2018-05-24T20:38:29.731Z,79.30
2018-05-24T20:40:57.961Z,79.30
2018-05-24T20:43:25.668Z,79.50
2018-05-24T20:45:53.788Z,79.90
2018-05-24T20:48:21.567Z,80.30
2018-05-24T20:50:49.279Z,79.40
2018-05-24T20:53:17.030Z,79.70
2018-05-24T20:55:44.775Z,80.10
2018-05-24T20:58:12.492Z,80.30
2018-05-24T21:00:40.292Z,80.60
2018-05-24T21:03:08.908Z,80.50
2018-05-24T21:05:37.244Z,80.10
2018-05-24T21:08:08.481Z,80.60
2018-05-24T21:10:38.588Z,80.60
2018-05-24T21:13:07.339Z,80.70
2018-05-24T21:15:35.323Z,81.10
2018-05-24T21:18:03.047Z,81.30
2018-05-24T21:20:31.622Z,81.50
2018-05-24T21:23:00.517Z,81.50
2018-05-24T21:25:30.155Z,81.90
2018-05-24T21:28:01.185Z,81.80
2018-05-24T21:30:30.325Z,82.20
2018-05-24T21:32:59.774Z,82.20
2018-05-24T21:35:29.604Z,82.20
2018-05-24T21:37:58.919Z,82.00
2018-05-24T21:40:29.100Z,82.00
2018-05-24T21:42:56.880Z,82.00
2018-05-24T21:45:27.591Z,83.10
2018-05-24T21:47:58.409Z,82.40
2018-05-24T21:50:29.238Z,82.50
2018-05-24T21:53:02.405Z,83.00
2018-05-24T21:55:30.641Z,82.40
2018-05-24T21:57:58.308Z,83.00
2018-05-24T22:00:25.982Z,83.20
2018-05-24T22:02:54.474Z,83.10
2018-05-24T22:05:22.148Z,83.20
2018-05-24T22:07:49.817Z,82.70
2018-05-24T22:10:17.570Z,82.90
2018-05-24T22:12:45.206Z,83.20
2018-05-24T22:15:13.005Z,83.20
2018-05-24T22:17:40.728Z,83.70
2018-05-24T22:20:10.094Z,83.40
2018-05-24T22:22:37.767Z,83.40
2018-05-24T22:25:06.486Z,83.30
2018-05-24T22:27:34.127Z,83.20
2018-05-24T22:30:01.760Z,83.50
2018-05-24T22:32:29.469Z,83.10
2018-05-24T22:34:57.890Z,83.30
2018-05-24T22:37:25.530Z,83.40
2018-05-24T22:39:53.982Z,83.30
2018-05-24T22:42:21.616Z,83.30
2018-05-24T22:44:49.261Z,84.00
2018-05-24T22:47:16.975Z,83.80
2018-05-24T22:49:44.638Z,83.70
2018-05-24T22:52:12.297Z,83.80
2018-05-24T22:54:40.054Z,83.50
2018-05-24T22:57:07.716Z,84.10
2018-05-24T22:59:35.408Z,83.50
2018-05-24T23:02:03.091Z,84.00
2018-05-24T23:04:30.722Z,83.80
2018-05-24T23:06:58.360Z,83.50
2018-05-24T23:09:26.814Z,83.50
2018-05-24T23:11:54.458Z,83.40
2018-05-24T23:14:22.130Z,83.70
2018-05-24T23:16:49.829Z,83.50
2018-05-24T23:19:18.315Z,83.50
2018-05-24T23:21:46.730Z,84.00
2018-05-24T23:24:14.415Z,84.00
2018-05-24T23:26:42.051Z,83.70
2018-05-24T23:29:09.703Z,83.80
2018-05-24T23:31:38.158Z,83.70
2018-05-24T23:34:05.802Z,83.70
2018-05-24T23:36:36.071Z,83.90
2018-05-24T23:39:05.491Z,84.50
2018-05-24T23:41:34.691Z,84.20
2018-05-24T23:44:02.437Z,84.30
2018-05-24T23:46:30.946Z,84.70
2018-05-24T23:48:59.365Z,84.60
2018-05-24T23:51:26.999Z,84.60
2018-05-24T23:53:54.673Z,84.90
2018-05-24T23:56:22.326Z,84.90
2018-05-24T23:58:50.717Z,84.90
